createdAt,value
2018-11-05T00:05:00.866Z,35.50
2018-11-05T00:15:06.255Z,38.70
2018-11-05T00:25:12.503Z,37.07
2018-11-05T00:35:16.952Z,35.97
2018-11-05T00:45:21.421Z,40.40
2018-11-05T00:55:25.911Z,37.10
2018-11-05T01:05:30.377Z,34.57
2018-11-05T01:15:34.862Z,29.97
2018-11-05T01:25:39.409Z,33.00
2018-11-05T01:35:43.885Z,36.93
2018-11-05T01:45:48.342Z,34.23
2018-11-05T01:55:52.733Z,26.27
2018-11-05T02:06:01.731Z,34.97
2018-11-05T02:16:06.273Z,31.77
2018-11-05T02:26:10.782Z,37.77
2018-11-05T02:36:15.076Z,29.50
2018-11-05T02:46:19.630Z,32.53
2018-11-05T02:56:23.897Z,31.27
2018-11-05T03:06:28.161Z,33.87
2018-11-05T03:16:32.810Z,33.77
2018-11-05T03:26:37.358Z,28.80
2018-11-05T03:36:41.885Z,34.93
2018-11-05T03:46:46.932Z,32.80
2018-11-05T03:56:51.824Z,35.73
2018-11-05T04:06:56.210Z,39.67
2018-11-05T04:17:02.303Z,33.73
2018-11-05T04:27:06.754Z,35.17
2018-11-05T04:37:11.045Z,41.30
2018-11-05T04:47:15.340Z,42.33
2018-11-05T04:57:19.886Z,39.03
2018-11-05T05:07:24.323Z,48.70
2018-11-05T05:17:29.058Z,48.37
2018-11-05T05:27:33.525Z,47.30
2018-11-05T05:37:38.163Z,49.70
2018-11-05T05:47:43.196Z,51.20
2018-11-05T05:57:47.698Z,60.27
2018-11-05T06:07:52.304Z,54.50
2018-11-05T06:17:56.562Z,57.53
2018-11-05T06:28:01.142Z,62.27
2018-11-05T06:38:05.673Z,53.70
2018-11-05T06:48:10.179Z,53.67
2018-11-05T06:58:14.672Z,59.90
2018-11-05T07:08:19.122Z,51.67
2018-11-05T07:18:28.023Z,61.47
2018-11-05T07:28:32.550Z,67.03
2018-11-05T07:38:37.338Z,64.20
2018-11-05T07:48:41.902Z,73.33
2018-11-05T07:58:46.635Z,73.43
2018-11-05T08:08:54.703Z,86.63
2018-11-05T08:18:59.255Z,98.30
2018-11-05T08:29:03.813Z,96.93
2018-11-05T08:39:10.910Z,92.77
2018-11-05T08:49:15.651Z,102.47
2018-11-05T08:59:20.439Z,101.40
2018-11-05T09:09:24.989Z,93.10
2018-11-05T09:19:29.661Z,98.63
2018-11-05T09:29:34.239Z,89.93
2018-11-05T09:39:38.809Z,98.83
2018-11-05T09:49:43.459Z,97.30
2018-11-05T09:59:48.059Z,96.83
2018-11-05T10:09:52.815Z,98.40
2018-11-05T10:19:57.409Z,100.07
2018-11-05T10:30:02.162Z,101.60
2018-11-05T10:40:12.188Z,96.83
2018-11-05T10:50:17.634Z,92.77
2018-11-05T11:00:27.897Z,96.77
2018-11-05T11:10:33.207Z,80.43
2018-11-05T11:20:38.047Z,81.97
2018-11-05T11:30:42.816Z,93.73
2018-11-05T11:40:47.267Z,101.87
2018-11-05T11:50:52.104Z,94.10
2018-11-05T12:00:56.827Z,83.97
2018-11-05T12:11:01.319Z,83.63
2018-11-05T12:21:09.626Z,76.00
2018-11-05T12:31:14.275Z,88.20
2018-11-05T12:41:18.941Z,75.70
2018-11-05T12:51:23.720Z,75.20
2018-11-05T13:01:28.990Z,70.33
2018-11-05T13:11:33.798Z,84.83
2018-11-05T13:21:38.482Z,69.73
2018-11-05T13:31:43.047Z,72.77
2018-11-05T13:41:48.737Z,66.70
2018-11-05T13:51:54.018Z,68.50
2018-11-05T14:01:58.762Z,66.73
2018-11-05T14:12:03.490Z,69.43
2018-11-05T14:22:08.272Z,60.23
2018-11-05T14:32:13.090Z,69.13
2018-11-05T14:42:17.675Z,63.27
2018-11-05T14:52:22.537Z,69.50
2018-11-05T15:02:32.276Z,72.80
2018-11-05T15:12:36.868Z,72.40
2018-11-05T15:22:41.319Z,71.07
2018-11-05T15:32:46.207Z,71.43
2018-11-05T15:42:50.772Z,80.33
2018-11-05T15:52:59.121Z,79.37
2018-11-05T16:03:03.322Z,81.07
2018-11-05T16:13:08.145Z,83.37
2018-11-05T16:23:12.863Z,92.80
2018-11-05T16:33:17.450Z,78.03
2018-11-05T16:43:22.163Z,81.60
2018-11-05T16:53:26.626Z,87.07
2018-11-05T17:03:31.268Z,79.47
2018-11-05T17:13:35.994Z,92.43
2018-11-05T17:23:40.901Z,86.03
2018-11-05T17:33:45.657Z,77.47
2018-11-05T17:43:50.259Z,93.43
2018-11-05T17:53:56.090Z,84.33
2018-11-05T18:04:01.003Z,79.13
2018-11-05T18:14:05.758Z,83.77
2018-11-05T18:24:10.434Z,80.33
2018-11-05T18:34:15.229Z,86.97
2018-11-05T18:44:20.214Z,82.33
2018-11-05T18:54:24.769Z,83.27
2018-11-05T19:04:29.543Z,83.67
2018-11-05T19:14:34.030Z,82.23
2018-11-05T19:24:38.649Z,90.50
2018-11-05T19:34:43.143Z,76.63
2018-11-05T19:44:48.007Z,76.07
2018-11-05T19:54:52.760Z,80.10
2018-11-05T20:04:57.643Z,79.37
2018-11-05T20:15:04.306Z,82.83
2018-11-05T20:25:09.358Z,88.63
2018-11-05T20:35:14.184Z,78.33
2018-11-05T20:45:19.391Z,82.23
2018-11-05T20:55:24.243Z,71.00
2018-11-05T21:05:29.214Z,68.73
2018-11-05T21:15:33.900Z,65.80
2018-11-05T21:25:38.615Z,69.87
2018-11-05T21:35:43.312Z,69.10
2018-11-05T21:45:48.131Z,66.23
2018-11-05T21:55:52.948Z,61.97
2018-11-05T22:05:57.677Z,70.57
2018-11-05T22:16:02.384Z,58.40
2018-11-05T22:26:07.101Z,60.53
2018-11-05T22:36:15.502Z,58.77
2018-11-05T22:46:20.194Z,55.13
2018-11-05T22:56:24.714Z,53.03
2018-11-05T23:06:29.330Z,47.27
2018-11-05T23:16:37.780Z,53.37
2018-11-05T23:26:42.454Z,51.10
2018-11-05T23:36:48.165Z,45.53
2018-11-05T23:46:52.736Z,44.07
2018-11-05T23:56:57.346Z,46.47
